Airfield :
LOGIN :

Register | Disclaimer

   EN    FR    IT 

 










Legend :    VFR   Marginal VFR   IFR   Intensive IFR   Very Intensive IFR
Visi :
Ceiling :
>= 8 km
>= 3000ft
5 to 8 km
1000 to 3000 ft
1500m to 5 km
500 to 1000 ft
800 to 1500m
200 to 500 ft
< 800m
< 200 ft
Symbols :   Thunderstorms  Fog  Heavy snow  Heavy precipitations  Wind > 20 kt
SIGMETs :     Misc.  Thunderstorms  Icing  Turbulence  Mountain Waves  Volcanic Ashes






- Airport Elevation : 375 ft
- IATA code : MST


EHBK - Maastricht Aachen

CURRENT METAR :
  • 280525Z AUTO 17006KT 5000 -RA FEW004 SCT005 OVC009 05/05 Q1005 BECMG BKN012

EXPIRED METARs :
  • 280455Z AUTO 18007KT 150V210 5000 -RA FEW002 OVC008 05/05 Q1005
  • 280425Z AUTO 18007KT 3800 -RA SCT002 OVC003 05/05 Q1006
  • 280355Z AUTO 19007KT 3800 -RA BKN002 OVC003 05/05 Q1007 REDZRA
  • 280325Z AUTO 19008KT 3100 -RA OVC001 05/05 Q1007 REDZRA
  • 270255Z AUTO 20015KT 9999 FEW036 BKN040 OVC044 01/M01 Q1014

TAF TAF EHBK
Valid from the 28 at 06:00 until the 29 at 12:00 UTC


280505Z 2806/2912 18007KT 6000 -RA BKN006
BECMG 2806/2809 BKN012
BECMG 2809/2812 26016KT 4000 RADZ BKN005
TEMPO 2810/2814 2000 DZRA BKN003
BECMG 2812/2815 8000 NSW BKN012
TEMPO 2814/2907 4000 DZRA BKN006
BECMG 2821/2824 21010KT
BECMG 2823/2902 6000 RA
BECMG 2904/2907 25020G30KT 9999 BKN020
TEMPO 2910/2912 6000 SHRA SCT025CB



MET'MAP, your aeronautical weather chart ! - Copyright ORBIFLY December 2007 - Disclaimer

ORBIFLY MET'MAP TEAM :

Programming & Development : Alexandra Zaïnal
Concept & original design : Baudouin d'Aumeries
Assistance for programming : Marc-Olivier Méhu
Technical & hardware support : Manuel Goepfert

Contact : metmap@orbifly.com




SOURCES & CREDITS :

   NOAA